Time;durP1;ratioP1;P1;durP2;ratioP2;P2;SDS_P1;SDS_P2;PMS_P1;PMS_P2;Temp;Humidity;BMP_temperature;BMP_pressure;BME280_temperature;BME280_humidity;BME280_pressure;Samples;Min_cycle;Max_cycle;Signal;HPM_P1;HPM_P2
2022/08/13 00:00:31;;;;;;;9.73;9.02;;;;;;;18.08;59.10;100875.50;4994362;28;20046;-72
2022/08/13 00:02:57;;;;;;;9.80;9.07;;;;;;;17.94;59.52;100873.25;4991077;28;20041;-72
2022/08/13 00:05:24;;;;;;;10.38;9.55;;;;;;;17.93;59.22;100875.06;4994286;28;20495;-72
2022/08/13 00:07:50;;;;;;;10.40;9.60;;;;;;;17.96;59.46;100868.75;4992997;28;20034;-72
2022/08/13 00:10:23;;;;;;;10.68;9.88;;;;;;;17.95;59.58;100869.69;4993634;28;20046;-72
2022/08/13 00:12:57;;;;;;;10.20;9.50;;;;;;;17.93;59.26;100867.03;4990985;28;20501;-71
2022/08/13 00:15:31;;;;;;;10.23;9.32;;;;;;;17.91;59.77;100860.88;4994154;28;20042;-72
2022/08/13 00:18:00;;;;;;;10.18;9.15;;;;;;;17.80;60.78;100871.00;4990446;28;20034;-72
2022/08/13 00:20:29;;;;;;;9.73;9.02;;;;;;;17.71;60.44;100865.91;4993981;28;20129;-72
2022/08/13 00:22:56;;;;;;;9.85;9.15;;;;;;;17.65;60.52;100876.78;4993533;28;20039;-73
2022/08/13 00:25:23;;;;;;;9.93;9.05;;;;;;;17.58;60.98;100868.09;4993930;28;20524;-72
2022/08/13 00:27:51;;;;;;;9.63;8.68;;;;;;;17.58;61.03;100869.88;4993872;28;20543;-71
2022/08/13 00:30:18;;;;;;;9.50;8.73;;;;;;;17.59;61.16;100861.81;4993828;28;20061;-71
2022/08/13 00:32:45;;;;;;;9.90;9.20;;;;;;;17.61;61.10;100861.78;4993545;28;20088;-72
2022/08/13 00:35:12;;;;;;;9.20;8.45;;;;;;;17.62;60.92;100860.88;4993577;28;20129;-72
2022/08/13 00:37:41;;;;;;;9.60;8.57;;;;;;;17.59;60.94;100863.63;4993121;28;20026;-72
2022/08/13 00:40:09;;;;;;;8.98;8.07;;;;;;;17.60;61.10;100865.38;4993535;28;20034;-72
2022/08/13 00:42:38;;;;;;;9.15;8.55;;;;;;;17.60;60.82;100865.38;4993313;28;20083;-70
2022/08/13 00:45:08;;;;;;;8.68;7.97;;;;;;;17.59;61.32;100863.63;4993027;28;20046;-70
2022/08/13 00:50:19;;;;;;;9.85;8.98;;;;;;;17.52;61.50;100858.44;4993422;28;20057;-72
2022/08/13 00:52:44;;;;;;;10.00;9.07;;;;;;;17.52;61.43;100854.91;4993219;28;20045;-72
2022/08/13 00:55:17;;;;;;;10.23;9.52;;;;;;;17.46;61.73;100853.31;4993353;28;20038;-71
2022/08/13 00:57:44;;;;;;;9.80;9.02;;;;;;;17.39;61.37;100848.19;4993285;28;20038;-72
2022/08/13 01:00:15;;;;;;;9.77;8.88;;;;;;;17.35;61.90;100849.22;4993160;28;20075;-72
2022/08/13 01:02:42;;;;;;;10.38;9.35;;;;;;;17.34;61.94;100840.31;4989993;28;20038;-72
2022/08/13 01:05:09;;;;;;;11.02;9.98;;;;;;;17.34;62.24;100842.13;4993158;28;20054;-71
2022/08/13 01:07:37;;;;;;;9.75;8.77;;;;;;;17.36;62.35;100838.50;4993083;28;20128;-72
2022/08/13 01:10:03;;;;;;;9.95;8.98;;;;;;;17.35;62.11;100841.22;4993139;28;20093;-72
2022/08/13 01:12:28;;;;;;;10.13;9.13;;;;;;;17.31;62.41;100829.75;4989032;28;20126;-72
2022/08/13 01:14:57;;;;;;;10.05;9.15;;;;;;;17.30;62.18;100839.53;4992693;28;20042;-72
2022/08/13 01:17:24;;;;;;;9.98;9.15;;;;;;;17.32;61.78;100831.50;4992894;28;20042;-72
2022/08/13 01:19:50;;;;;;;9.88;9.07;;;;;;;17.30;62.15;100834.22;4992504;28;20090;-71
2022/08/13 01:22:16;;;;;;;11.15;9.27;;;;;;;17.29;62.01;100829.81;4992647;28;20121;-72
2022/08/13 01:24:42;;;;;;;10.02;9.13;;;;;;;17.28;61.73;100821.84;4992752;28;20109;-72
2022/08/13 01:27:09;;;;;;;10.00;8.93;;;;;;;17.24;61.78;100817.53;4992803;28;20034;-72
2022/08/13 01:29:36;;;;;;;10.48;9.68;;;;;;;17.17;62.24;100823.94;4992474;28;20122;-72
2022/08/13 01:32:02;;;;;;;11.45;10.32;;;;;;;17.11;62.13;100824.09;4992512;28;20449;-72
2022/08/13 01:34:30;;;;;;;9.48;8.73;;;;;;;17.10;62.51;100820.56;4992907;28;20033;-72
2022/08/13 01:36:56;;;;;;;10.50;9.60;;;;;;;17.12;62.43;100831.22;4992448;28;20042;-72
2022/08/13 01:39:21;;;;;;;9.45;8.75;;;;;;;17.05;62.15;100827.81;4992537;28;20042;-71
2022/08/13 01:41:48;;;;;;;9.73;8.60;;;;;;;17.00;62.40;100825.31;4992276;28;20030;-72
2022/08/13 01:44:15;;;;;;;10.10;9.15;;;;;;;16.99;62.61;100823.53;4991924;28;20066;-72
2022/08/13 01:52:13;;;;;;;10.70;9.90;;;;;;;16.94;63.20;100835.25;4990285;28;20527;-72
2022/08/13 01:54:39;;;;;;;10.50;9.57;;;;;;;16.92;62.91;100837.09;4992224;28;20034;-72
2022/08/13 01:57:08;;;;;;;11.18;10.27;;;;;;;16.89;63.20;100842.50;4992389;28;20397;-71
2022/08/13 01:59:35;;;;;;;11.63;10.45;;;;;;;16.81;63.40;100832.91;4988728;28;20038;-72
2022/08/13 02:02:04;;;;;;;12.30;11.40;;;;;;;16.70;64.63;100826.09;4991894;28;20061;-72
2022/08/13 02:04:32;;;;;;;11.45;10.63;;;;;;;16.49;64.94;100827.53;4991993;28;20100;-72
2022/08/13 02:06:59;;;;;;;11.73;10.73;;;;;;;16.47;64.83;100824.91;4992065;28;20041;-72
2022/08/13 02:09:26;;;;;;;13.07;11.73;;;;;;;16.50;64.93;100824.81;4988609;28;20038;-72
2022/08/13 02:11:51;;;;;;;12.10;11.30;;;;;;;16.43;65.70;100823.25;4991856;28;20038;-71
2022/08/13 02:14:17;;;;;;;11.93;10.95;;;;;;;16.41;66.38;100820.63;4991805;28;20559;-71
2022/08/13 02:16:43;;;;;;;14.23;13.13;;;;;;;16.34;66.46;100820.81;4992184;28;20065;-72
2022/08/13 02:19:09;;;;;;;12.52;11.63;;;;;;;16.31;66.21;100812.91;4991944;28;20041;-72
2022/08/13 02:21:37;;;;;;;12.55;11.55;;;;;;;16.30;66.48;100819.16;4991443;28;20034;-72
2022/08/13 02:24:05;;;;;;;13.00;11.90;;;;;;;16.29;66.50;100822.72;4991896;28;20030;-72
2022/08/13 02:26:37;;;;;;;13.63;12.43;;;;;;;16.26;67.29;100826.31;4991874;28;20544;-72
2022/08/13 02:29:04;;;;;;;;;;;;;;;16.26;69.62;100821.00;4992217;28;20390;-72
2022/08/13 02:31:29;;;;;;;12.48;11.65;;;;;;;16.20;67.90;100821.16;4987001;28;20005;-72
2022/08/13 02:33:56;;;;;;;13.48;12.57;;;;;;;16.19;68.51;100828.28;4991636;28;20038;-72
2022/08/13 02:36:22;;;;;;;13.23;12.15;;;;;;;16.21;67.85;100828.22;4991702;28;20125;-72
2022/08/13 02:39:06;;;;;;;13.10;12.20;;;;;;;16.25;68.23;100829.03;4991736;28;20042;-70
2022/08/13 02:41:43;;;;;;;13.88;12.77;;;;;;;16.19;67.86;100832.72;4988987;28;20125;-72
2022/08/13 02:44:14;;;;;;;12.27;11.15;;;;;;;16.20;68.03;100831.81;4991565;28;20037;-72
2022/08/13 02:46:42;;;;;;;13.73;12.63;;;;;;;16.26;68.08;100833.44;4991534;28;20100;-72
2022/08/13 02:49:08;;;;;;;13.70;12.68;;;;;;;16.27;68.06;100832.53;4991614;28;20046;-71
2022/08/13 02:51:34;;;;;;;13.18;12.07;;;;;;;16.24;68.47;100832.59;4991352;28;20038;-72
2022/08/13 02:54:00;;;;;;;13.85;12.63;;;;;;;16.27;68.32;100825.44;4991286;28;20037;-72
2022/08/13 02:56:29;;;;;;;15.15;13.75;;;;;;;16.29;68.12;100831.56;4991427;28;20053;-72
2022/08/13 02:58:56;;;;;;;13.13;12.13;;;;;;;16.21;68.67;100826.44;4990183;28;20042;-71
2022/08/13 03:01:24;;;;;;;11.90;11.00;;;;;;;16.21;68.36;100829.09;4991197;28;20484;-72
2022/08/13 03:03:49;;;;;;;12.65;11.65;;;;;;;16.16;68.40;100825.66;4991472;28;20030;-72
2022/08/13 03:06:19;;;;;;;13.10;12.10;;;;;;;16.18;68.59;100830.97;4991486;28;20120;-72
2022/08/13 03:08:51;;;;;;;13.60;12.60;;;;;;;16.21;68.39;100825.56;4991516;28;20038;-71
2022/08/13 03:11:17;;;;;;;13.50;12.40;;;;;;;16.17;68.51;100829.22;4987829;28;20046;-72
2022/08/13 03:13:53;;;;;;;12.68;11.77;;;;;;;16.23;67.95;100833.53;4990118;28;20038;-72
2022/08/13 03:16:24;;;;;;;15.48;13.77;;;;;;;16.29;68.36;100836.03;4991399;28;20034;-72
2022/08/13 03:18:50;;;;;;;14.88;12.40;;;;;;;16.26;68.18;100831.66;4991414;28;20437;-72
2022/08/13 03:21:18;;;;;;;14.25;13.07;;;;;;;16.26;68.03;100838.78;4990947;28;20097;-72
2022/08/13 03:23:45;;;;;;;12.93;12.00;;;;;;;16.23;67.99;100833.53;4987598;28;20074;-73
2022/08/13 03:26:11;;;;;;;15.02;13.73;;;;;;;16.25;68.07;100824.59;4991313;28;20058;-72
2022/08/13 03:28:37;;;;;;;14.73;12.98;;;;;;;16.36;67.20;100827.84;4991507;28;20531;-72
2022/08/13 03:31:03;;;;;;;13.35;12.35;;;;;;;16.36;67.49;100833.19;4991232;28;20108;-70
2022/08/13 03:33:28;;;;;;;14.18;12.98;;;;;;;16.40;67.38;100828.63;4991094;28;20477;-72
2022/08/13 03:35:54;;;;;;;13.88;12.15;;;;;;;16.43;67.37;100828.59;4991273;28;20197;-72
2022/08/13 03:38:19;;;;;;;14.13;12.93;;;;;;;16.49;67.00;100824.88;4991163;28;20053;-71
2022/08/13 03:41:11;;;;;;;13.50;12.45;;;;;;;16.55;66.72;100820.25;4991187;28;20038;-72
2022/08/13 03:43:38;;;;;;;12.45;11.52;;;;;;;16.56;67.04;100821.16;4991173;28;20031;-71
2022/08/13 03:46:04;;;;;;;11.93;10.75;;;;;;;16.50;66.71;100824.81;4994616;28;20041;-71
2022/08/13 03:48:29;;;;;;;12.57;11.40;;;;;;;16.44;66.85;100822.31;4994643;28;20034;-72
2022/08/13 03:50:59;;;;;;;13.50;12.40;;;;;;;16.42;66.33;100825.03;4994562;28;20042;-72
2022/08/13 03:53:25;;;;;;;13.32;12.23;;;;;;;16.39;66.84;100816.25;4993902;28;20042;-72
2022/08/13 03:55:50;;;;;;;13.93;12.70;;;;;;;16.39;66.74;100821.56;4994462;28;20038;-72
2022/08/13 03:58:17;;;;;;;13.65;12.38;;;;;;;16.39;67.12;100808.25;4994325;28;20046;-71
2022/08/13 04:00:48;;;;;;;14.27;13.15;;;;;;;16.33;67.08;100814.63;4994302;28;20400;-72
2022/08/13 04:03:19;;;;;;;13.15;11.88;;;;;;;16.33;67.23;100819.94;4993786;28;20043;-71
2022/08/13 04:05:45;;;;;;;13.73;12.57;;;;;;;16.29;67.28;100812.06;4994079;28;20050;-71
2022/08/13 04:08:11;;;;;;;12.80;11.85;;;;;;;16.18;68.15;100812.34;4993377;28;20073;-73
2022/08/13 04:10:37;;;;;;;12.98;11.93;;;;;;;16.28;67.47;100810.31;4993996;28;20116;-72
2022/08/13 04:13:04;;;;;;;14.57;13.48;;;;;;;16.34;67.53;100812.81;4993544;28;20144;-71
2022/08/13 04:15:30;;;;;;;13.68;12.18;;;;;;;16.38;67.66;100814.50;4989942;28;20129;-72
2022/08/13 04:17:56;;;;;;;12.60;11.55;;;;;;;16.45;67.30;100816.06;4993790;28;20046;-72
2022/08/13 04:20:21;;;;;;;15.02;13.60;;;;;;;16.48;68.32;100816.03;4993821;28;20038;-72
2022/08/13 04:22:47;;;;;;;14.23;13.20;;;;;;;16.48;68.84;100816.03;4993818;28;20038;-72
2022/08/13 04:25:13;;;;;;;14.18;13.07;;;;;;;16.53;68.91;100816.78;4993807;28;20042;-72
2022/08/13 04:27:38;;;;;;;15.77;14.38;;;;;;;16.61;68.77;100812.13;4993838;28;20042;-73
2022/08/13 04:30:05;;;;;;;15.82;14.40;;;;;;;16.65;68.71;100816.44;4993880;28;20070;-72
2022/08/13 04:32:40;;;;;;;16.30;14.82;;;;;;;16.76;69.51;100820.59;4993581;28;20066;-72
2022/08/13 04:35:06;;;;;;;16.20;14.88;;;;;;;16.81;69.44;100818.72;4993441;28;20049;-74
2022/08/13 04:37:31;;;;;;;14.77;13.38;;;;;;;16.75;70.79;100818.88;4993553;28;20042;-74
2022/08/13 04:39:57;;;;;;;14.57;13.18;;;;;;;16.78;69.96;100821.47;4993649;28;20070;-73
2022/08/13 04:42:22;;;;;;;14.00;12.57;;;;;;;16.90;69.15;100822.91;4993437;28;20038;-73
2022/08/13 04:44:48;;;;;;;14.60;13.40;;;;;;;16.94;68.15;100825.47;4993530;28;20068;-73
2022/08/13 04:47:13;;;;;;;14.88;13.55;;;;;;;16.92;68.20;100827.28;4991885;28;20050;-72
2022/08/13 04:49:38;;;;;;;15.15;13.85;;;;;;;16.82;69.90;100831.13;4992486;28;20038;-72
2022/08/13 04:52:04;;;;;;;15.77;14.23;;;;;;;16.83;69.48;100822.22;4991488;28;20057;-74
2022/08/13 04:54:29;;;;;;;14.63;13.48;;;;;;;16.96;68.80;100828.97;4988387;28;20038;-72
2022/08/13 04:56:55;;;;;;;14.40;13.10;;;;;;;17.03;69.42;100824.34;4992846;28;20560;-73
2022/08/13 04:59:22;;;;;;;15.00;13.90;;;;;;;17.09;69.59;100825.03;4992727;28;20108;-74
2022/08/13 05:01:47;;;;;;;15.65;13.82;;;;;;;17.27;69.32;100828.09;4989731;28;20489;-72
2022/08/13 05:04:13;;;;;;;15.48;14.13;;;;;;;17.39;69.09;100832.19;4991567;28;20152;-72
2022/08/13 05:06:38;;;;;;;14.50;13.25;;;;;;;17.47;69.53;100825.69;4992537;28;20037;-73
2022/08/13 05:09:03;;;;;;;16.55;14.68;;;;;;;17.55;69.14;100827.25;4988343;28;20038;-73
2022/08/13 05:11:29;;;;;;;14.55;13.35;;;;;;;17.68;68.65;100825.97;4992533;28;20046;-73
2022/08/13 05:13:55;;;;;;;13.32;11.98;;;;;;;17.78;67.95;100830.09;4992662;28;20061;-72
2022/08/13 05:16:20;;;;;;;12.38;11.38;;;;;;;17.86;67.66;100836.09;4992455;28;20493;-72
2022/08/13 05:18:53;;;;;;;13.63;12.52;;;;;;;17.95;67.47;100825.16;4990479;28;20073;-73
2022/08/13 05:21:21;;;;;;;14.43;13.23;;;;;;;18.07;67.38;100820.31;4989692;28;20092;-72
2022/08/13 05:23:53;;;;;;;14.20;13.00;;;;;;;18.17;66.56;100816.44;4992402;28;20034;-73
2022/08/13 05:26:24;;;;;;;14.23;13.05;;;;;;;18.27;66.12;100814.34;4991314;28;20096;-72
2022/08/13 05:28:50;;;;;;;12.38;11.18;;;;;;;18.34;66.29;100818.56;4988984;28;20038;-73
2022/08/13 05:31:18;;;;;;;17.52;15.98;;;;;;;18.43;65.90;100812.03;4991856;28;20415;-73
2022/08/13 05:33:44;;;;;;;15.07;13.68;;;;;;;18.52;65.42;100809.91;4992448;28;20042;-72
2022/08/13 05:36:09;;;;;;;15.27;14.07;;;;;;;18.59;65.06;100813.22;4992373;28;20113;-73
2022/08/13 05:38:37;;;;;;;15.68;14.38;;;;;;;18.65;64.48;100813.00;4992352;28;20050;-73
2022/08/13 05:41:04;;;;;;;15.38;14.15;;;;;;;18.72;64.67;100811.88;4989729;28;20034;-71
2022/08/13 05:43:33;;;;;;;14.93;13.73;;;;;;;18.75;64.81;100816.25;4987995;28;20088;-73
2022/08/13 05:46:07;;;;;;;17.08;15.00;;;;;;;18.75;64.79;100811.78;4991212;28;20109;-72
2022/08/13 05:48:41;;;;;;;15.70;14.20;;;;;;;18.83;64.73;100812.38;4991961;28;20034;-73
2022/08/13 05:51:10;;;;;;;15.52;13.88;;;;;;;18.90;64.90;100802.34;4991213;28;20042;-71
2022/08/13 05:53:37;;;;;;;16.05;14.63;;;;;;;18.99;64.47;100793.09;4991351;28;20034;-72
2022/08/13 05:56:06;;;;;;;17.52;16.13;;;;;;;19.10;64.64;100798.97;4990517;28;20034;-74
2022/08/13 05:58:32;;;;;;;17.02;15.43;;;;;;;19.19;64.14;100803.94;4991658;28;20034;-72
2022/08/13 06:03:43;;;;;;;18.02;16.13;;;;;;;19.50;63.86;100792.06;4986705;28;20030;-72
2022/08/13 06:06:11;;;;;;;16.98;15.45;;;;;;;19.64;63.61;100784.34;4991254;28;20034;-72
2022/08/13 06:08:40;;;;;;;19.70;18.10;;;;;;;19.75;64.42;100783.09;4991395;28;20516;-73
2022/08/13 06:11:08;;;;;;;17.90;16.30;;;;;;;19.95;63.88;100790.34;4989713;28;20034;-73
2022/08/13 06:13:38;;;;;;;18.40;16.45;;;;;;;20.30;62.86;100784.38;4990574;28;20034;-72
2022/08/13 06:16:06;;;;;;;16.10;14.70;;;;;;;20.67;60.66;100792.66;4991167;28;20034;-72
2022/08/13 06:18:35;;;;;;;15.43;14.23;;;;;;;20.74;60.36;100791.44;4988929;28;20042;-72
2022/08/13 06:21:04;;;;;;;14.57;13.55;;;;;;;20.99;59.66;100793.91;4990684;28;20505;-73
2022/08/13 06:23:32;;;;;;;15.98;14.57;;;;;;;21.27;58.40;100782.75;4989843;28;20125;-73
2022/08/13 06:25:59;;;;;;;16.63;15.13;;;;;;;21.45;57.99;100778.38;4991068;28;20519;-72
2022/08/13 06:28:28;;;;;;;18.10;16.52;;;;;;;21.56;58.33;100784.13;4989873;28;20026;-73
2022/08/13 06:30:58;;;;;;;20.58;18.95;;;;;;;21.77;58.21;100782.22;4989925;28;20046;-72
2022/08/13 06:33:23;;;;;;;15.05;13.75;;;;;;;21.95;57.02;100796.56;4989096;28;20166;-72
2022/08/13 06:35:54;;;;;;;16.90;15.32;;;;;;;22.14;56.49;100792.94;4990348;28;20120;-72
2022/08/13 06:38:22;;;;;;;18.30;16.85;;;;;;;22.24;56.65;100792.47;4991202;28;20062;-73
2022/08/13 06:40:48;;;;;;;17.30;16.05;;;;;;;22.45;55.47;100793.19;4988280;28;20393;-72
2022/08/13 06:43:18;;;;;;;17.45;15.90;;;;;;;22.68;55.03;100785.72;4991263;28;20050;-72
2022/08/13 06:45:45;;;;;;;21.90;20.00;;;;;;;22.76;55.40;100792.44;4991235;28;20041;-73
2022/08/13 06:48:11;;;;;;;18.13;16.63;;;;;;;23.00;54.23;100789.41;4991146;28;20041;-72
2022/08/13 06:50:37;;;;;;;16.70;15.15;;;;;;;23.19;54.26;100795.56;4944454;28;20417;-72
2022/08/13 06:53:04;;;;;;;18.77;17.23;;;;;;;23.33;53.91;100789.41;4945677;29;20043;-73
2022/08/13 06:55:30;;;;;;;23.48;21.38;;;;;;;23.46;53.70;100788.75;4951625;28;20082;-73
2022/08/13 06:57:56;;;;;;;21.85;19.95;;;;;;;23.64;52.94;100795.78;4949005;28;20490;-73
2022/08/13 07:00:25;;;;;;;20.10;18.40;;;;;;;23.73;52.66;100792.59;4951320;29;20095;-73
2022/08/13 07:02:52;;;;;;;24.33;22.30;;;;;;;23.75;52.21;100790.69;4948122;28;20494;-73
2022/08/13 07:05:30;;;;;;;16.88;15.57;;;;;;;23.74;52.30;100793.50;4948427;28;20053;-72
2022/08/13 07:07:55;;;;;;;16.52;15.02;;;;;;;23.64;52.32;100790.41;4952425;28;20126;-73
2022/08/13 07:10:21;;;;;;;16.08;14.73;;;;;;;23.54;52.37;100799.97;4952623;28;20240;-73
2022/08/13 07:12:48;;;;;;;15.40;14.20;;;;;;;23.54;53.36;100797.25;4950853;29;20054;-72
2022/08/13 07:15:16;;;;;;;15.23;14.07;;;;;;;23.60;53.51;100795.06;4951692;28;20047;-73
2022/08/13 07:17:44;;;;;;;19.30;17.60;;;;;;;23.58;53.43;100799.72;4953417;28;20051;-72
2022/08/13 07:20:10;;;;;;;16.15;14.95;;;;;;;23.41;53.91;100805.16;4956178;28;20058;-72
2022/08/13 07:22:35;;;;;;;19.10;17.58;;;;;;;23.41;53.46;100807.84;4955791;28;20039;-72
2022/08/13 07:25:03;;;;;;;16.20;14.82;;;;;;;23.32;53.58;100802.97;4955782;28;20093;-71
2022/08/13 07:27:30;;;;;;;15.40;14.15;;;;;;;23.38;53.83;100802.63;4955497;28;20039;-73
2022/08/13 07:29:56;;;;;;;19.13;14.43;;;;;;;23.31;53.53;100810.16;4955823;28;20171;-72
2022/08/13 07:32:23;;;;;;;16.88;15.32;;;;;;;23.15;53.99;100807.44;4955847;28;20043;-73
2022/08/13 07:34:49;;;;;;;18.52;17.02;;;;;;;22.94;55.39;100804.06;4955933;28;20113;-73
2022/08/13 07:37:22;;;;;;;18.63;17.13;;;;;;;23.01;55.81;100801.94;4955862;28;20186;-74
2022/08/13 07:39:48;;;;;;;16.88;15.35;;;;;;;23.19;55.19;100808.16;4955897;28;20122;-73
2022/08/13 07:42:15;;;;;;;21.15;19.45;;;;;;;23.51;53.75;100802.81;4955642;28;20508;-73
2022/08/13 07:44:41;;;;;;;17.30;16.00;;;;;;;23.76;53.42;100799.63;4955711;28;20387;-72
2022/08/13 07:47:11;;;;;;;21.10;19.15;;;;;;;23.87;52.94;100810.69;4951977;29;20045;-74
2022/08/13 07:49:37;;;;;;;17.25;15.95;;;;;;;23.91;52.81;100800.59;4955329;28;20054;-73
2022/08/13 07:52:05;;;;;;;16.77;15.57;;;;;;;23.90;52.73;100804.25;4955219;28;20125;-73
2022/08/13 07:54:31;;;;;;;15.50;14.15;;;;;;;23.97;52.18;100806.50;4955637;28;20043;-73
2022/08/13 07:56:58;;;;;;;16.42;15.13;;;;;;;24.06;51.93;100805.97;4953602;28;20035;-73
2022/08/13 07:59:26;;;;;;;16.92;15.73;;;;;;;24.23;51.84;100807.69;4953794;28;20113;-72
2022/08/13 08:01:54;;;;;;;16.17;14.98;;;;;;;24.17;51.95;100799.09;4953506;28;20039;-73
2022/08/13 08:04:24;;;;;;;16.08;14.88;;;;;;;24.29;51.41;100803.75;4954829;28;20042;-72
2022/08/13 08:06:49;;;;;;;17.30;15.80;;;;;;;24.38;51.55;100800.50;4955057;28;20035;-73
2022/08/13 08:09:20;;;;;;;18.52;17.20;;;;;;;24.53;51.27;100801.47;4955213;28;20039;-73
2022/08/13 08:14:30;;;;;;;18.45;16.83;;;;;;;24.94;50.14;100798.03;4951757;29;20110;-71
2022/08/13 08:17:00;;;;;;;18.23;17.02;;;;;;;25.15;49.46;100806.63;4954715;28;20556;-73
2022/08/13 08:19:27;;;;;;;18.38;16.73;;;;;;;25.19;49.35;100793.84;4954597;28;20197;-73
2022/08/13 08:21:56;;;;;;;17.98;16.70;;;;;;;25.32;49.03;100787.56;4953729;28;20580;-73
2022/08/13 08:24:22;;;;;;;17.98;16.48;;;;;;;25.39;49.03;100792.56;4954866;28;20108;-73
2022/08/13 08:26:48;;;;;;;18.65;17.40;;;;;;;25.26;49.30;100798.78;4954306;28;20633;-73
2022/08/13 08:29:14;;;;;;;18.38;16.88;;;;;;;25.11;49.80;100799.72;4953802;28;20072;-73
2022/08/13 08:31:40;;;;;;;20.83;19.00;;;;;;;25.20;49.07;100795.59;4954651;28;20039;-73
2022/08/13 08:34:07;;;;;;;20.00;18.70;;;;;;;25.35;49.27;100792.78;4954853;28;20047;-73
2022/08/13 08:36:37;;;;;;;23.85;22.05;;;;;;;25.72;48.90;100794.94;4954594;28;20035;-73
2022/08/13 08:44:38;;;;;;;19.65;18.13;;;;;;;25.94;47.79;100800.72;4951926;29;20516;-73
2022/08/13 08:47:04;;;;;;;22.23;20.42;;;;;;;25.84;47.87;100804.09;4954541;28;20036;-72
2022/08/13 08:49:30;;;;;;;19.92;18.63;;;;;;;26.02;47.61;100795.66;4953834;28;20051;-73
2022/08/13 08:51:57;;;;;;;20.45;19.05;;;;;;;26.20;47.54;100793.56;4953920;28;20574;-73
2022/08/13 08:54:23;;;;;;;21.25;19.58;;;;;;;26.46;46.78;100796.31;4950834;29;20043;-73
2022/08/13 08:56:54;;;;;;;24.88;23.08;;;;;;;26.66;46.51;100794.97;4954522;28;20031;-73
2022/08/13 08:59:20;;;;;;;28.80;26.30;;;;;;;26.89;46.00;100793.38;4952998;28;20050;-73
2022/08/13 09:01:45;;;;;;;25.65;23.85;;;;;;;27.16;45.40;100789.69;4954015;29;20065;-73
2022/08/13 09:04:13;;;;;;;26.75;24.85;;;;;;;27.32;45.08;100783.06;4953941;29;20070;-72
2022/08/13 09:06:40;;;;;;;29.38;27.17;;;;;;;27.44;44.92;100786.75;4953534;28;20622;-74
2022/08/13 09:09:06;;;;;;;21.45;20.15;;;;;;;27.44;44.92;100792.16;4952759;28;20070;-73
2022/08/13 09:11:34;;;;;;;23.52;22.02;;;;;;;27.41;45.70;100789.69;4952981;28;20440;-73
2022/08/13 09:14:03;;;;;;;24.02;22.25;;;;;;;27.37;45.95;100793.59;4949613;28;20043;-73
2022/08/13 09:16:29;;;;;;;24.33;22.30;;;;;;;27.34;45.66;100788.38;4953802;29;20047;-73
2022/08/13 09:18:56;;;;;;;22.40;20.88;;;;;;;27.22;45.47;100789.25;4954236;28;20407;-73
2022/08/13 09:21:22;;;;;;;21.88;20.38;;;;;;;26.94;46.19;100793.06;4952865;28;20041;-73
2022/08/13 09:23:47;;;;;;;20.38;19.08;;;;;;;26.66;46.88;100793.13;4951215;28;20042;-72
2022/08/13 09:26:15;;;;;;;20.30;19.10;;;;;;;26.58;47.15;100794.66;4953763;28;20074;-73
2022/08/13 09:28:42;;;;;;;21.08;19.58;;;;;;;26.49;47.22;100790.72;4953724;28;20039;-73
2022/08/13 09:31:10;;;;;;;21.58;20.17;;;;;;;26.55;47.01;100795.72;4953471;28;20078;-74
2022/08/13 09:33:38;;;;;;;21.33;19.88;;;;;;;26.62;47.04;100790.78;4953675;28;20039;-72
2022/08/13 09:36:07;;;;;;;21.10;19.33;;;;;;;26.64;47.34;100791.50;4953269;29;20442;-73
2022/08/13 09:38:33;;;;;;;22.02;20.55;;;;;;;26.61;47.48;100789.88;4953642;28;20548;-74
2022/08/13 09:41:17;;;;;;;21.90;20.10;;;;;;;26.76;47.32;100792.50;4953372;28;20126;-73
2022/08/13 09:43:44;;;;;;;21.55;19.85;;;;;;;26.67;47.39;100792.19;4953742;28;20411;-74
2022/08/13 09:46:10;;;;;;;23.65;21.95;;;;;;;26.57;48.10;100785.66;4953700;28;20046;-74
2022/08/13 09:48:37;;;;;;;22.42;20.60;;;;;;;26.64;47.87;100786.97;4953613;28;20054;-73
2022/08/13 09:51:03;;;;;;;23.65;22.05;;;;;;;26.92;47.40;100778.75;4953462;28;20050;-73
2022/08/13 09:53:28;;;;;;;21.85;20.45;;;;;;;27.20;46.73;100783.13;4953302;28;20031;-74
2022/08/13 09:55:55;;;;;;;23.67;22.27;;;;;;;27.37;45.79;100779.16;4953113;28;20390;-73
2022/08/13 09:58:22;;;;;;;23.10;21.60;;;;;;;27.23;46.65;100783.75;4964239;28;20043;-74
2022/08/13 10:00:48;;;;;;;23.65;22.02;;;;;;;27.00;46.75;100779.06;4953585;28;20666;-74
2022/08/13 10:03:17;;;;;;;21.45;20.00;;;;;;;26.81;46.85;100776.81;4953366;28;20098;-74
2022/08/13 10:05:45;;;;;;;23.23;21.73;;;;;;;26.62;47.45;100772.69;4952828;28;20035;-74
2022/08/13 10:08:16;;;;;;;28.40;26.70;;;;;;;26.39;47.99;100776.94;4951815;28;20062;-73
2022/08/13 10:10:44;;;;;;;22.75;21.40;;;;;;;26.54;47.45;100775.06;4953037;29;20086;-74
2022/08/13 10:13:10;;;;;;;21.50;20.25;;;;;;;26.75;47.21;100764.56;4952523;28;20040;-74
2022/08/13 10:15:36;;;;;;;22.42;20.67;;;;;;;27.07;46.34;100764.13;4951760;28;20126;-73
2022/08/13 10:18:02;;;;;;;23.40;22.00;;;;;;;27.45;45.90;100757.78;4952980;28;20126;-73
2022/08/13 10:20:33;;;;;;;24.65;23.17;;;;;;;27.57;45.36;100761.47;4950622;28;20051;-73
2022/08/13 10:23:02;;;;;;;23.00;21.52;;;;;;;27.76;44.64;100761.81;4952259;28;20063;-73
2022/08/13 10:25:29;;;;;;;24.33;22.92;;;;;;;28.10;44.42;100756.59;4953253;28;20035;-73
2022/08/13 10:27:55;;;;;;;28.25;26.73;;;;;;;28.26;43.27;100746.28;4953135;28;20086;-73
2022/08/13 10:30:24;;;;;;;25.48;23.88;;;;;;;28.51;43.17;100748.00;4953188;28;20043;-73
2022/08/13 10:32:49;;;;;;;24.98;23.38;;;;;;;28.83;42.56;100744.59;4952793;28;20548;-72
2022/08/13 10:35:19;;;;;;;27.38;25.58;;;;;;;28.91;42.60;100735.84;4952966;28;20070;-72
2022/08/13 10:37:56;;;;;;;25.38;23.63;;;;;;;29.10;41.73;100738.84;4953051;28;20039;-73
2022/08/13 10:40:23;;;;;;;23.88;22.48;;;;;;;29.15;41.36;100735.75;4950743;29;20390;-73
2022/08/13 10:42:49;;;;;;;24.35;22.85;;;;;;;29.07;41.66;100736.38;4952608;28;20053;-73
2022/08/13 10:45:14;;;;;;;23.25;21.27;;;;;;;29.25;42.13;100731.28;4952904;28;20413;-73
2022/08/13 10:47:47;;;;;;;23.77;22.23;;;;;;;29.34;42.27;100729.66;4952855;28;20031;-73
2022/08/13 10:50:14;;;;;;;24.90;23.30;;;;;;;29.36;41.87;100736.72;4953013;28;20078;-73
2022/08/13 10:52:40;;;;;;;25.23;23.70;;;;;;;29.57;42.52;100731.34;4954060;28;20476;-73
2022/08/13 10:55:08;;;;;;;24.85;23.35;;;;;;;29.48;43.53;100726.69;4956833;28;20276;-73
2022/08/13 10:57:35;;;;;;;28.73;26.92;;;;;;;28.77;43.16;100728.81;4956740;28;20411;-73
2022/08/13 11:00:01;;;;;;;23.45;21.85;;;;;;;28.42;44.27;100732.38;4956952;28;20054;-73
2022/08/13 11:02:27;;;;;;;31.40;29.38;;;;;;;28.15;44.69;100727.25;4956377;29;20035;-73
2022/08/13 11:04:53;;;;;;;25.73;24.13;;;;;;;28.30;44.81;100722.50;4956702;28;20031;-73
2022/08/13 11:07:21;;;;;;;24.75;23.35;;;;;;;28.56;44.50;100718.66;4954285;28;20519;-73
2022/08/13 11:09:47;;;;;;;27.45;25.25;;;;;;;28.65;44.48;100717.06;4956560;28;20486;-73
2022/08/13 11:12:12;;;;;;;28.00;26.23;;;;;;;28.62;43.70;100722.72;4956243;28;20054;-73
2022/08/13 11:14:38;;;;;;;30.50;28.88;;;;;;;28.35;44.50;100717.59;4954987;29;20047;-73
2022/08/13 11:17:04;;;;;;;25.40;23.85;;;;;;;28.32;44.44;100710.56;4956262;28;20042;-73
2022/08/13 11:19:30;;;;;;;29.38;27.67;;;;;;;28.47;43.96;100704.94;4956424;28;20039;-73
2022/08/13 11:21:56;;;;;;;30.48;28.67;;;;;;;28.77;43.61;100710.66;4956260;28;20039;-73
2022/08/13 11:24:22;;;;;;;26.80;25.20;;;;;;;28.97;42.47;100714.47;4956193;28;20090;-73
2022/08/13 11:26:47;;;;;;;26.15;24.60;;;;;;;29.22;41.87;100705.22;4956397;28;20181;-73
2022/08/13 11:29:14;;;;;;;24.80;23.20;;;;;;;29.33;41.86;100715.22;4955989;28;20054;-72
2022/08/13 11:31:39;;;;;;;30.55;28.20;;;;;;;28.97;42.70;100714.47;4963427;28;20178;-73